Time;durP1;ratioP1;P1;durP2;ratioP2;P2;SDS_P1;SDS_P2;PMS_P1;PMS_P2;Temp;Humidity;BMP_temperature;BMP_pressure;BME280_temperature;BME280_humidity;BME280_pressure;Samples;Min_cycle;Max_cycle;Signal;HPM_P1;HPM_P2
2022/07/31 00:00:18;;;;;;;2.95;1.52;;;18.30;99.90;;;;;;5040137;28;20049;-80
2022/07/31 00:02:44;;;;;;;3.88;1.67;;;18.30;99.90;;;;;;5056648;28;20044;-80
2022/07/31 00:05:10;;;;;;;2.83;1.67;;;18.20;99.90;;;;;;5054411;28;20494;-80
2022/07/31 00:07:36;;;;;;;3.35;1.63;;;18.10;99.90;;;;;;5056055;28;20130;-80
2022/07/31 00:10:03;;;;;;;3.05;1.70;;;18.00;99.90;;;;;;5056459;28;20087;-79
2022/07/31 00:12:28;;;;;;;2.35;1.60;;;17.90;99.90;;;;;;5039417;28;20082;-79
2022/07/31 00:14:54;;;;;;;5.18;1.40;;;17.90;99.90;;;;;;5035834;28;20501;-79
2022/07/31 00:17:20;;;;;;;2.75;1.50;;;17.80;99.90;;;;;;5051776;28;20045;-79
2022/07/31 00:19:46;;;;;;;3.25;1.80;;;17.80;99.90;;;;;;5035838;28;20055;-79
2022/07/31 00:22:12;;;;;;;3.30;1.75;;;17.80;99.90;;;;;;5036035;28;20040;-79
2022/07/31 00:24:38;;;;;;;4.05;1.73;;;17.80;99.90;;;;;;5043419;28;20039;-79
2022/07/31 00:27:04;;;;;;;2.95;1.40;;;17.80;99.90;;;;;;5055115;28;20501;-79
2022/07/31 00:29:30;;;;;;;2.88;1.60;;;17.80;99.90;;;;;;5054149;28;20095;-80
2022/07/31 00:31:55;;;;;;;5.00;2.00;;;17.90;99.90;;;;;;5056297;28;20048;-79
2022/07/31 00:34:21;;;;;;;2.83;1.58;;;17.90;99.90;;;;;;5039633;28;20059;-80
2022/07/31 00:36:47;;;;;;;3.85;1.67;;;17.90;99.90;;;;;;5052785;28;20049;-80
2022/07/31 00:39:14;;;;;;;4.07;1.65;;;17.90;99.90;;;;;;5036499;28;20040;-80
2022/07/31 00:41:42;;;;;;;4.75;2.00;;;17.90;99.90;;;;;;5052541;28;20040;-80
2022/07/31 00:44:08;;;;;;;4.13;2.22;;;17.90;99.90;;;;;;5055987;28;20047;-79
2022/07/31 00:46:35;;;;;;;3.45;2.03;;;18.00;99.90;;;;;;5055661;28;20051;-79
2022/07/31 00:49:01;;;;;;;5.53;2.00;;;18.00;99.90;;;;;;5035870;28;20048;-79
2022/07/31 00:51:27;;;;;;;2.70;2.13;;;18.00;99.90;;;;;;5052792;28;20037;-79
2022/07/31 00:53:53;;;;;;;3.25;2.08;;;18.00;99.90;;;;;;5052754;28;20040;-79
2022/07/31 00:56:19;;;;;;;5.20;2.22;;;18.10;99.90;;;;;;5038759;28;20048;-79
2022/07/31 00:58:45;;;;;;;7.53;1.92;;;18.10;99.90;;;;;;5055832;28;20044;-79
2022/07/31 01:01:11;;;;;;;4.03;1.80;;;18.10;99.90;;;;;;5022741;28;20044;-83
2022/07/31 01:03:36;;;;;;;7.45;2.10;;;18.10;99.90;;;;;;5055757;28;20123;-83
2022/07/31 01:06:03;;;;;;;7.40;2.22;;;18.10;99.90;;;;;;5055722;28;20040;-83
2022/07/31 01:08:28;;;;;;;3.72;2.10;;;18.10;99.90;;;;;;5039144;28;20041;-83
2022/07/31 01:11:04;;;;;;;8.07;1.92;;;18.10;99.90;;;;;;5056183;28;20101;-83
2022/07/31 01:13:57;;;;;;;5.93;2.27;;;18.10;99.90;;;;;;5056019;28;20055;-83
2022/07/31 01:16:27;;;;;;;3.55;2.03;;;18.20;99.90;;;;;;5037613;28;20287;-83
2022/07/31 01:18:56;;;;;;;5.07;2.50;;;18.20;99.90;;;;;;5055016;28;20048;-83
2022/07/31 01:21:52;;;;;;;4.63;2.30;;;18.10;99.90;;;;;;5055584;28;20032;-83
2022/07/31 01:24:55;;;;;;;4.22;2.45;;;18.20;99.90;;;;;;5053709;28;20490;-83
2022/07/31 01:27:48;;;;;;;2.65;1.60;;;18.20;99.90;;;;;;5072532;28;20090;-83
2022/07/31 01:30:14;;;;;;;4.68;2.17;;;18.20;99.90;;;;;;5032477;28;20049;-83
2022/07/31 01:32:48;;;;;;;2.85;1.85;;;18.20;99.90;;;;;;5025106;28;20395;-83
2022/07/31 01:35:26;;;;;;;4.35;2.22;;;18.10;99.90;;;;;;5052397;28;20041;-83
2022/07/31 01:38:08;;;;;;;2.10;1.50;;;18.10;99.90;;;;;;5035898;28;20124;-83
2022/07/31 01:40:41;;;;;;;4.88;1.90;;;18.20;99.90;;;;;;5035630;28;20044;-83
2022/07/31 01:43:12;;;;;;;4.15;1.92;;;18.10;99.90;;;;;;5052073;28;20033;-83
2022/07/31 01:45:42;;;;;;;3.58;2.20;;;18.10;99.90;;;;;;5019107;28;20068;-83
2022/07/31 01:48:12;;;;;;;3.47;2.10;;;18.10;99.90;;;;;;5052178;28;20426;-83
2022/07/31 01:50:39;;;;;;;3.45;1.88;;;18.10;99.90;;;;;;5052861;28;20348;-83
2022/07/31 01:53:06;;;;;;;1.88;1.20;;;18.10;99.90;;;;;;5051541;28;20127;-83
2022/07/31 01:55:33;;;;;;;3.10;1.75;;;18.10;99.90;;;;;;5052020;28;20060;-83
2022/07/31 01:58:00;;;;;;;2.58;1.70;;;18.10;99.90;;;;;;5035768;28;20057;-83
2022/07/31 02:00:26;;;;;;;2.92;1.73;;;18.10;99.90;;;;;;5051952;28;20398;-83
2022/07/31 02:02:54;;;;;;;4.20;1.52;;;18.10;99.90;;;;;;5037801;28;20132;-83
2022/07/31 02:05:22;;;;;;;3.47;1.80;;;18.10;99.90;;;;;;5055448;28;20495;-83
2022/07/31 02:07:49;;;;;;;3.72;1.85;;;18.10;99.90;;;;;;5055894;28;20120;-79
2022/07/31 02:10:16;;;;;;;2.70;2.00;;;18.20;99.90;;;;;;5055182;28;20033;-80
2022/07/31 02:12:43;;;;;;;2.33;1.60;;;18.20;99.90;;;;;;5038774;28;20041;-80
2022/07/31 02:15:11;;;;;;;5.57;2.13;;;18.20;99.90;;;;;;5054584;28;20041;-79
2022/07/31 02:17:38;;;;;;;4.40;2.20;;;18.20;99.90;;;;;;5054701;28;20120;-79
2022/07/31 02:20:06;;;;;;;3.38;2.00;;;18.20;99.90;;;;;;5055713;28;20398;-80
2022/07/31 02:22:33;;;;;;;3.75;1.83;;;18.20;99.90;;;;;;5055350;28;20349;-80
2022/07/31 02:24:58;;;;;;;2.88;1.70;;;18.20;99.90;;;;;;5054524;28;20048;-82
2022/07/31 02:27:26;;;;;;;3.25;1.85;;;18.20;99.90;;;;;;5055162;28;20037;-83
2022/07/31 02:29:53;;;;;;;4.78;2.75;;;18.20;99.90;;;;;;5027981;28;20123;-83
2022/07/31 02:32:22;;;;;;;4.22;2.20;;;18.20;99.90;;;;;;5038513;28;20403;-83
2022/07/31 02:34:48;;;;;;;3.88;1.80;;;18.10;99.90;;;;;;5036120;28;20093;-83
2022/07/31 02:37:15;;;;;;;4.35;1.98;;;18.10;99.90;;;;;;5041932;28;20040;-82
2022/07/31 02:39:41;;;;;;;3.65;1.90;;;18.10;99.90;;;;;;5058871;28;20050;-83
2022/07/31 02:42:08;;;;;;;2.92;1.70;;;18.10;99.90;;;;;;5041651;28;20090;-79
2022/07/31 02:44:36;;;;;;;6.55;1.85;;;18.10;99.90;;;;;;5041431;28;20044;-79
2022/07/31 02:47:04;;;;;;;2.40;1.73;;;18.10;99.90;;;;;;5041667;28;20067;-79
2022/07/31 02:49:30;;;;;;;4.68;2.30;;;18.10;99.90;;;;;;5058509;28;20479;-80
2022/07/31 02:51:56;;;;;;;3.30;1.80;;;18.10;99.90;;;;;;5058268;28;20062;-80
2022/07/31 02:54:25;;;;;;;3.20;2.00;;;18.00;99.90;;;;;;5058050;28;20036;-80
2022/07/31 02:56:55;;;;;;;2.83;1.70;;;18.00;99.90;;;;;;5057933;28;20048;-79
2022/07/31 02:59:21;;;;;;;2.38;1.70;;;17.90;99.90;;;;;;5041346;28;20036;-82
2022/07/31 03:01:46;;;;;;;3.42;1.92;;;17.90;99.90;;;;;;5058664;28;20367;-82
2022/07/31 03:04:12;;;;;;;3.10;1.95;;;17.80;99.90;;;;;;5041010;28;20036;-83
2022/07/31 03:06:38;;;;;;;2.85;1.90;;;17.80;99.90;;;;;;5058425;28;20044;-83
2022/07/31 03:09:04;;;;;;;2.65;2.00;;;17.70;99.90;;;;;;5058099;28;20041;-82
2022/07/31 03:11:29;;;;;;;5.82;2.20;;;17.60;99.90;;;;;;5057793;28;20106;-83
2022/07/31 03:13:57;;;;;;;3.53;1.92;;;17.60;99.90;;;;;;5041237;28;20053;-83
2022/07/31 03:16:24;;;;;;;4.50;2.35;;;17.60;99.90;;;;;;5052897;28;20044;-83
2022/07/31 03:18:51;;;;;;;5.40;2.03;;;17.50;99.90;;;;;;5040239;28;20491;-83
2022/07/31 03:21:17;;;;;;;3.72;2.38;;;17.50;99.90;;;;;;5041200;28;20101;-83
2022/07/31 03:23:44;;;;;;;5.18;1.98;;;17.50;99.90;;;;;;5057608;28;20090;-83
2022/07/31 03:26:10;;;;;;;4.07;2.35;;;17.40;99.90;;;;;;5023351;28;20045;-83
2022/07/31 03:28:36;;;;;;;4.55;2.47;;;17.40;99.90;;;;;;5041286;28;20090;-83
2022/07/31 03:31:02;;;;;;;3.67;2.20;;;17.40;99.90;;;;;;5040542;28;20049;-79
2022/07/31 03:33:28;;;;;;;4.70;2.60;;;17.40;99.90;;;;;;5057130;28;20085;-79
2022/07/31 03:35:54;;;;;;;3.88;2.40;;;17.40;99.90;;;;;;5057278;28;20047;-79
2022/07/31 03:38:20;;;;;;;4.53;2.80;;;17.40;99.90;;;;;;5057491;28;20394;-79
2022/07/31 03:40:46;;;;;;;5.90;2.55;;;17.40;99.90;;;;;;5057291;28;20048;-79
2022/07/31 03:43:13;;;;;;;4.57;2.50;;;17.50;99.90;;;;;;5040449;28;20079;-79
2022/07/31 03:45:40;;;;;;;4.90;2.70;;;17.40;99.90;;;;;;5056685;28;20044;-79
2022/07/31 03:48:07;;;;;;;3.95;2.50;;;17.40;99.90;;;;;;5040768;28;20040;-79
2022/07/31 03:50:36;;;;;;;3.75;2.63;;;17.40;99.90;;;;;;5040814;28;20634;-79
2022/07/31 03:53:03;;;;;;;5.85;3.67;;;17.50;99.90;;;;;;5073666;28;20039;-79
2022/07/31 03:55:30;;;;;;;5.35;2.95;;;17.50;99.90;;;;;;5056848;28;20044;-79
2022/07/31 03:57:57;;;;;;;4.38;2.55;;;17.50;99.90;;;;;;5039913;28;20039;-79
2022/07/31 04:00:26;;;;;;;4.75;2.75;;;17.50;99.90;;;;;;5040374;28;20040;-79
2022/07/31 04:02:55;;;;;;;5.50;2.83;;;17.50;99.90;;;;;;5040404;28;20532;-79
2022/07/31 04:05:21;;;;;;;5.50;2.80;;;17.50;99.90;;;;;;5057074;28;20443;-79
2022/07/31 04:07:47;;;;;;;4.88;2.60;;;17.50;99.90;;;;;;5056239;28;20383;-79
2022/07/31 04:10:13;;;;;;;4.65;2.80;;;17.60;99.90;;;;;;5056705;28;20505;-79
2022/07/31 04:12:39;;;;;;;5.10;2.35;;;17.60;99.90;;;;;;5056860;28;20045;-79
2022/07/31 04:15:05;;;;;;;4.78;2.42;;;17.60;99.90;;;;;;5056655;28;20049;-79
2022/07/31 04:17:31;;;;;;;3.95;2.40;;;17.60;99.90;;;;;;5054945;28;20048;-79
2022/07/31 04:19:56;;;;;;;4.55;2.38;;;17.60;99.90;;;;;;5039957;28;20059;-79
2022/07/31 04:22:22;;;;;;;4.28;2.80;;;17.60;99.90;;;;;;5056235;28;20482;-79
2022/07/31 04:24:48;;;;;;;4.15;2.63;;;17.60;99.90;;;;;;5033638;28;20040;-79
2022/07/31 04:27:17;;;;;;;5.85;2.42;;;17.60;99.90;;;;;;5049145;28;20044;-80
2022/07/31 04:29:44;;;;;;;3.80;2.40;;;17.60;99.90;;;;;;5035698;28;20132;-80
2022/07/31 04:32:10;;;;;;;3.38;2.53;;;17.70;99.90;;;;;;5036642;28;20502;-79
2022/07/31 04:34:36;;;;;;;5.03;2.85;;;17.70;99.90;;;;;;5036201;28;20076;-79
2022/07/31 04:37:02;;;;;;;4.53;2.25;;;17.70;99.90;;;;;;5048551;28;20037;-82
2022/07/31 04:39:28;;;;;;;3.85;2.47;;;17.70;99.90;;;;;;5065486;28;20379;-83
2022/07/31 04:41:54;;;;;;;4.75;2.78;;;17.80;99.90;;;;;;5055136;28;20040;-83
2022/07/31 04:44:21;;;;;;;4.18;2.30;;;17.80;99.90;;;;;;5039288;28;20143;-83
2022/07/31 04:46:46;;;;;;;3.83;2.38;;;17.90;99.90;;;;;;5022390;28;20044;-83
2022/07/31 04:49:13;;;;;;;4.75;3.05;;;17.90;99.90;;;;;;5055378;28;20035;-83
2022/07/31 04:51:41;;;;;;;4.45;2.50;;;18.00;99.90;;;;;;5055967;28;20040;-83
2022/07/31 04:54:07;;;;;;;3.22;2.13;;;18.00;99.90;;;;;;5056314;28;20040;-80
2022/07/31 04:56:33;;;;;;;4.20;2.90;;;18.10;99.90;;;;;;5036202;28;20037;-80
2022/07/31 04:59:00;;;;;;;3.97;2.35;;;18.20;99.90;;;;;;5055378;28;20440;-80
2022/07/31 05:01:26;;;;;;;3.85;2.53;;;18.20;99.90;;;;;;5055731;28;20517;-79
2022/07/31 05:03:52;;;;;;;5.22;3.00;;;18.30;99.90;;;;;;5055806;28;20045;-80
2022/07/31 05:06:18;;;;;;;12.88;2.55;;;18.40;99.90;;;;;;5055553;28;20032;-80
2022/07/31 05:08:43;;;;;;;3.95;2.10;;;18.40;99.90;;;;;;5023072;28;20059;-80
2022/07/31 05:11:21;;;;;;;4.15;2.40;;;18.60;99.90;;;;;;5038408;28;20036;-82
2022/07/31 05:13:48;;;;;;;3.55;2.35;;;18.70;99.90;;;;;;5056013;28;20093;-82
2022/07/31 05:16:14;;;;;;;5.55;2.40;;;18.70;99.90;;;;;;5039037;28;20048;-82
2022/07/31 05:18:39;;;;;;;4.68;2.92;;;18.70;99.90;;;;;;5021904;28;20174;-82
2022/07/31 05:21:05;;;;;;;4.70;2.45;;;18.80;99.90;;;;;;5055548;28;20060;-82
2022/07/31 05:23:31;;;;;;;6.45;2.75;;;18.80;99.90;;;;;;5039167;28;20043;-82
2022/07/31 05:25:56;;;;;;;4.47;2.78;;;18.80;99.90;;;;;;5039219;28;20608;-83
2022/07/31 05:28:22;;;;;;;3.40;2.10;;;18.80;99.90;;;;;;5055861;28;20037;-79
2022/07/31 05:30:48;;;;;;;3.97;1.90;;;18.80;99.90;;;;;;5021922;28;20119;-79
2022/07/31 05:33:13;;;;;;;5.57;2.53;;;18.80;99.90;;;;;;5055236;28;20052;-79
2022/07/31 05:35:39;;;;;;;4.78;2.22;;;18.80;99.90;;;;;;5055901;28;20076;-79
2022/07/31 05:38:05;;;;;;;11.20;3.25;;;18.90;99.90;;;;;;5026216;28;20032;-79
2022/07/31 05:40:30;;;;;;;3.67;2.40;;;18.90;99.90;;;;;;5042458;28;20079;-79
2022/07/31 05:42:56;;;;;;;3.92;2.50;;;19.00;99.90;;;;;;5042829;28;20040;-79
2022/07/31 05:45:22;;;;;;;4.88;2.55;;;19.00;99.90;;;;;;5059553;28;20148;-79
2022/07/31 05:47:47;;;;;;;3.45;2.30;;;19.00;99.90;;;;;;5040880;28;20123;-79
2022/07/31 05:50:13;;;;;;;4.68;2.47;;;19.10;99.90;;;;;;5025513;28;20107;-79
2022/07/31 05:52:39;;;;;;;3.20;2.03;;;19.10;99.90;;;;;;5042082;28;20043;-79
2022/07/31 05:55:05;;;;;;;3.60;2.35;;;19.20;99.90;;;;;;5059346;28;20040;-79
2022/07/31 05:57:31;;;;;;;4.30;2.60;;;19.10;99.90;;;;;;5022495;28;20075;-79
2022/07/31 05:59:57;;;;;;;4.95;2.47;;;19.20;99.90;;;;;;5036325;22;20392;-83
2022/07/31 06:02:22;;;;;;;6.53;2.50;;;19.20;99.90;;;;;;5026186;28;20041;-83
2022/07/31 06:04:48;;;;;;;5.25;2.50;;;19.30;99.90;;;;;;5038776;28;20506;-83
2022/07/31 06:07:13;;;;;;;4.90;2.45;;;19.30;99.90;;;;;;5039376;28;20037;-83
2022/07/31 06:09:39;;;;;;;4.43;2.50;;;19.40;99.90;;;;;;5018527;28;20044;-83
2022/07/31 06:12:05;;;;;;;4.80;2.90;;;19.40;99.90;;;;;;5003002;28;20042;-83
2022/07/31 06:14:31;;;;;;;3.97;2.58;;;19.40;99.90;;;;;;5031187;28;20547;-83
2022/07/31 06:16:57;;;;;;;3.58;2.30;;;19.40;99.90;;;;;;5011647;28;20455;-79
2022/07/31 06:19:23;;;;;;;3.92;2.10;;;19.40;99.90;;;;;;5000560;28;20120;-79
2022/07/31 06:21:48;;;;;;;4.32;2.95;;;19.40;99.90;;;;;;5017285;28;20053;-79
2022/07/31 06:24:14;;;;;;;3.05;2.10;;;19.50;99.90;;;;;;5002803;28;20041;-79
2022/07/31 06:26:40;;;;;;;5.32;3.30;;;19.50;99.90;;;;;;5035212;28;20120;-79
2022/07/31 06:29:06;;;;;;;4.72;2.47;;;19.60;99.90;;;;;;5003044;28;20052;-79
2022/07/31 06:31:31;;;;;;;6.63;2.33;;;19.60;99.90;;;;;;5014981;28;20125;-79
2022/07/31 06:33:57;;;;;;;4.70;2.20;;;19.70;99.90;;;;;;5015948;28;20038;-82
2022/07/31 06:36:23;;;;;;;3.60;2.40;;;19.80;99.90;;;;;;5020983;28;20431;-83
2022/07/31 06:38:49;;;;;;;5.18;2.65;;;19.90;99.90;;;;;;5018172;28;20046;-83
2022/07/31 06:41:43;;;;;;;3.28;2.15;;;19.90;99.90;;;;;;5031575;28;20041;-83
2022/07/31 06:44:00;;;;;;;4.57;2.57;;;20.00;99.90;;;;;;5015978;28;20137;-83
2022/07/31 06:46:26;;;;;;;4.28;2.30;;;20.10;99.90;;;;;;5001940;28;20120;-83
2022/07/31 06:48:52;;;;;;;3.58;2.50;;;20.20;99.90;;;;;;5018091;28;20523;-83
2022/07/31 06:51:18;;;;;;;3.55;2.20;;;20.30;99.90;;;;;;5036793;28;20444;-79
2022/07/31 06:53:44;;;;;;;4.63;2.55;;;20.40;99.90;;;;;;5042991;28;20046;-79
2022/07/31 06:56:09;;;;;;;4.45;2.35;;;20.50;99.90;;;;;;5013746;28;20041;-79
2022/07/31 06:58:35;;;;;;;3.65;2.38;;;20.80;99.90;;;;;;5033264;28;20128;-79
2022/07/31 07:01:01;;;;;;;4.38;2.60;;;20.90;99.90;;;;;;5013611;28;20061;-79
2022/07/31 07:03:26;;;;;;;5.28;2.63;;;21.10;99.90;;;;;;5017164;28;20049;-79
2022/07/31 07:05:52;;;;;;;6.13;2.63;;;21.20;99.90;;;;;;5018096;28;20064;-79
2022/07/31 07:08:18;;;;;;;5.20;2.63;;;21.30;99.90;;;;;;5034822;28;20041;-79
2022/07/31 07:10:44;;;;;;;3.55;2.25;;;21.40;99.90;;;;;;5044471;28;20091;-79
2022/07/31 07:13:09;;;;;;;3.70;2.58;;;21.60;99.90;;;;;;5034802;28;20037;-79
2022/07/31 07:15:35;;;;;;;4.47;2.50;;;21.80;99.90;;;;;;5007149;28;20046;-79
2022/07/31 07:18:01;;;;;;;5.05;3.00;;;22.00;99.90;;;;;;5031256;28;20563;-79
2022/07/31 07:20:26;;;;;;;3.55;2.42;;;22.10;99.90;;;;;;5017642;28;20148;-79
2022/07/31 07:22:52;;;;;;;5.45;2.97;;;22.10;99.90;;;;;;5016160;28;20036;-79
2022/07/31 07:25:19;;;;;;;4.60;2.90;;;22.10;99.90;;;;;;5035525;28;20029;-83
2022/07/31 07:27:45;;;;;;;4.18;2.42;;;22.00;99.90;;;;;;5008810;28;20038;-83
2022/07/31 07:30:11;;;;;;;6.88;2.45;;;21.90;99.90;;;;;;5013436;28;20052;-83
2022/07/31 07:32:37;;;;;;;4.97;2.65;;;21.80;99.90;;;;;;5017784;28;20038;-83
2022/07/31 07:35:03;;;;;;;4.85;2.60;;;21.80;99.90;;;;;;5009588;28;20368;-84
2022/07/31 07:37:29;;;;;;;4.60;2.85;;;21.80;99.90;;;;;;5038448;28;20492;-83
2022/07/31 07:39:57;;;;;;;5.22;2.90;;;21.70;99.90;;;;;;5030964;28;20454;-80
2022/07/31 07:42:22;;;;;;;10.77;3.15;;;21.80;99.90;;;;;;5003610;28;20044;-79
2022/07/31 07:44:48;;;;;;;4.63;2.70;;;21.90;99.90;;;;;;5026972;28;20116;-79
2022/07/31 07:47:14;;;;;;;5.50;2.67;;;21.90;99.90;;;;;;5026291;28;20412;-79
2022/07/31 07:49:39;;;;;;;6.45;3.47;;;22.00;99.90;;;;;;5005936;28;20044;-79
2022/07/31 07:52:05;;;;;;;6.75;2.92;;;22.00;99.90;;;;;;5019293;28;20069;-79
2022/07/31 07:54:31;;;;;;;4.47;2.78;;;22.10;99.90;;;;;;5013180;28;20056;-80
2022/07/31 07:56:57;;;;;;;3.85;2.13;;;22.00;99.90;;;;;;5016441;28;20091;-79
2022/07/31 07:59:23;;;;;;;7.22;3.00;;;22.00;99.90;;;;;;5013658;28;20065;-79
2022/07/31 08:01:49;;;;;;;7.80;2.97;;;22.00;99.90;;;;;;4970404;28;20425;-79
2022/07/31 08:04:14;;;;;;;4.32;2.25;;;22.00;99.90;;;;;;4996972;28;20046;-79
2022/07/31 08:06:40;;;;;;;8.77;2.95;;;22.00;99.90;;;;;;5013535;28;20349;-79
2022/07/31 08:09:06;;;;;;;4.78;2.80;;;21.90;99.90;;;;;;5011892;28;20369;-79
2022/07/31 08:11:31;;;;;;;6.80;3.08;;;21.80;99.90;;;;;;5013437;28;20049;-80
2022/07/31 08:13:57;;;;;;;5.35;2.92;;;21.70;99.90;;;;;;4980703;28;20046;-80
2022/07/31 08:16:23;;;;;;;6.35;2.95;;;21.60;99.90;;;;;;5009752;28;20050;-80
2022/07/31 08:18:50;;;;;;;6.00;3.17;;;21.50;99.90;;;;;;5012292;28;20042;-80
2022/07/31 08:21:16;;;;;;;5.57;3.28;;;21.40;99.90;;;;;;5030155;28;20041;-79
2022/07/31 08:23:42;;;;;;;4.20;2.65;;;21.30;99.90;;;;;;5019198;28;20053;-80
2022/07/31 08:26:08;;;;;;;4.40;2.25;;;21.30;99.90;;;;;;4977300;28;20035;-79
2022/07/31 08:28:34;;;;;;;4.93;2.95;;;21.30;99.90;;;;;;5006295;28;20084;-79
2022/07/31 08:31:00;;;;;;;7.47;3.08;;;21.20;99.90;;;;;;5018943;28;20476;-84
2022/07/31 08:33:26;;;;;;;5.60;3.10;;;21.20;99.90;;;;;;5033479;28;20391;-84
2022/07/31 08:35:52;;;;;;;5.78;3.40;;;21.20;99.90;;;;;;5022050;28;20042;-84
2022/07/31 08:38:18;;;;;;;9.27;3.58;;;21.10;99.90;;;;;;5002643;28;20042;-84
2022/07/31 08:40:45;;;;;;;7.97;3.38;;;21.00;99.90;;;;;;4982735;28;20047;-84
2022/07/31 08:43:12;;;;;;;8.93;3.70;;;20.90;99.90;;;;;;4996480;28;20495;-85
2022/07/31 08:45:39;;;;;;;8.32;3.40;;;20.80;99.90;;;;;;4996579;28;20045;-84
2022/07/31 08:48:07;;;;;;;6.30;3.78;;;20.80;99.90;;;;;;4980715;28;20125;-84
2022/07/31 08:50:39;;;;;;;6.55;3.28;;;20.70;99.90;;;;;;5013490;28;20365;-84
2022/07/31 08:53:06;;;;;;;6.75;3.30;;;20.70;99.90;;;;;;5011187;28;20041;-84
2022/07/31 08:55:32;;;;;;;7.05;3.28;;;20.70;99.90;;;;;;4980904;28;20042;-84
2022/07/31 08:57:58;;;;;;;7.93;3.75;;;20.70;99.90;;;;;;4996530;28;20037;-85
2022/07/31 09:00:24;;;;;;;9.40;4.10;;;20.70;99.90;;;;;;4988906;28;20108;-85
2022/07/31 09:02:51;;;;;;;9.98;4.10;;;20.80;99.90;;;;;;5015209;28;20053;-85
2022/07/31 09:05:19;;;;;;;7.82;3.65;;;20.80;99.90;;;;;;5032675;28;20055;-85
2022/07/31 09:07:45;;;;;;;6.95;2.85;;;20.80;99.90;;;;;;5032790;28;20034;-85
2022/07/31 09:10:21;;;;;;;7.10;3.60;;;20.80;99.90;;;;;;5014599;28;20063;-84
2022/07/31 09:12:47;;;;;;;7.18;3.42;;;20.90;99.90;;;;;;5016915;28;20052;-84
2022/07/31 09:15:24;;;;;;;8.00;3.38;;;21.00;99.90;;;;;;5032014;28;20053;-85
2022/07/31 09:17:51;;;;;;;6.72;3.75;;;21.00;99.90;;;;;;5015016;28;20480;-85
2022/07/31 09:20:22;;;;;;;6.97;3.80;;;21.00;99.90;;;;;;4999674;28;20077;-85
2022/07/31 09:23:13;;;;;;;7.60;3.55;;;21.00;99.90;;;;;;5047552;28;20048;-85
2022/07/31 09:25:38;;;;;;;6.25;3.67;;;20.90;99.90;;;;;;5016422;28;20120;-85
2022/07/31 09:28:06;;;;;;;8.13;4.45;;;20.90;99.90;;;;;;5032079;28;20578;-85
2022/07/31 09:30:32;;;;;;;11.40;4.70;;;20.80;99.90;;;;;;4983599;28;20189;-85
2022/07/31 09:33:18;;;;;;;9.32;4.15;;;20.70;99.90;;;;;;5000193;28;20049;-85
2022/07/31 09:35:51;;;;;;;9.43;4.07;;;20.60;99.90;;;;;;5035334;28;20052;-85
2022/07/31 09:38:17;;;;;;;6.80;3.70;;;20.50;99.90;;;;;;5035863;28;20075;-85
2022/07/31 09:40:44;;;;;;;10.57;4.63;;;20.60;99.90;;;;;;5018762;28;20480;-84
2022/07/31 09:43:18;;;;;;;7.50;3.97;;;20.60;99.90;;;;;;5032054;28;20083;-85
2022/07/31 09:46:04;;;;;;;7.70;3.78;;;20.60;99.90;;;;;;5033488;28;20056;-84
2022/07/31 09:48:31;;;;;;;7.10;4.50;;;20.60;99.90;;;;;;5035368;28;20037;-85
2022/07/31 09:50:58;;;;;;;10.90;4.38;;;20.60;99.90;;;;;;5035522;28;20045;-85
2022/07/31 09:53:24;;;;;;;6.60;4.28;;;20.60;99.90;;;;;;5018422;28;20073;-85
2022/07/31 09:55:55;;;;;;;10.60;4.68;;;20.60;99.90;;;;;;5036632;28;20037;-84
2022/07/31 09:58:22;;;;;;;7.68;4.10;;;20.60;99.90;;;;;;5031874;28;20037;-85
2022/07/31 10:00:52;;;;;;;7.40;4.05;;;20.60;99.90;;;;;;5032146;28;20067;-84
2022/07/31 10:03:19;;;;;;;11.57;5.43;;;20.60;99.90;;;;;;5015662;28;20049;-85
2022/07/31 10:05:46;;;;;;;6.70;3.95;;;20.50;99.90;;;;;;5031615;28;20096;-85
2022/07/31 10:08:16;;;;;;;6.90;4.15;;;20.40;99.90;;;;;;5032084;28;20088;-84
2022/07/31 10:10:46;;;;;;;8.95;3.90;;;20.40;99.90;;;;;;5015054;28;20068;-80
2022/07/31 10:13:14;;;;;;;7.40;4.13;;;20.40;99.90;;;;;;4998970;28;20040;-80
2022/07/31 10:15:41;;;;;;;10.88;5.53;;;20.50;99.90;;;;;;5005445;28;20101;-80
2022/07/31 10:18:10;;;;;;;8.73;4.00;;;20.40;99.90;;;;;;5013625;28;20084;-80
2022/07/31 10:20:38;;;;;;;6.38;3.78;;;20.50;99.90;;;;;;5015122;28;20033;-80
2022/07/31 10:23:15;;;;;;;5.82;3.78;;;20.50;99.90;;;;;;5027663;28;20100;-80
2022/07/31 10:26:00;;;;;;;6.85;4.07;;;20.50;99.90;;;;;;5000385;28;20461;-80
2022/07/31 10:28:28;;;;;;;6.80;3.88;;;20.50;99.90;;;;;;5014518;28;20051;-84
2022/07/31 10:30:55;;;;;;;5.18;3.40;;;20.50;99.90;;;;;;5022271;28;20041;-85
2022/07/31 10:33:21;;;;;;;5.63;3.28;;;20.50;99.90;;;;;;5026667;28;20395;-84
2022/07/31 10:36:06;;;;;;;7.03;3.78;;;20.50;99.90;;;;;;5035423;28;20052;-84
2022/07/31 10:38:39;;;;;;;5.78;4.10;;;20.50;99.90;;;;;;5018760;28;20087;-84
2022/07/31 10:41:33;;;;;;;8.13;4.57;;;20.50;99.90;;;;;;5035306;28;20103;-85
2022/07/31 10:44:10;;;;;;;7.07;4.22;;;20.40;99.90;;;;;;5045534;28;20049;-85
2022/07/31 10:46:36;;;;;;;6.97;3.85;;;20.40;99.90;;;;;;5021551;28;20049;-85
2022/07/31 10:49:02;;;;;;;7.50;4.80;;;20.40;99.90;;;;;;5002302;28;20046;-85
2022/07/31 10:51:28;;;;;;;7.00;4.45;;;20.50;99.90;;;;;;5034523;28;20079;-85
2022/07/31 10:54:00;;;;;;;10.35;5.82;;;20.50;99.90;;;;;;5006907;28;20084;-85
2022/07/31 10:56:27;;;;;;;6.72;4.35;;;20.50;99.90;;;;;;5020168;28;20052;-85
2022/07/31 10:58:55;;;;;;;8.82;5.13;;;20.50;99.90;;;;;;5034660;28;20084;-85
2022/07/31 11:01:22;;;;;;;7.43;4.82;;;20.40;99.90;;;;;;5018423;28;20057;-85
2022/07/31 11:03:52;;;;;;;8.93;5.30;;;20.40;99.90;;;;;;5034689;28;20395;-84
2022/07/31 11:06:20;;;;;;;6.97;4.47;;;20.30;99.90;;;;;;5033764;28;20041;-84
2022/07/31 11:08:52;;;;;;;6.85;4.30;;;20.30;99.90;;;;;;5035053;28;20033;-85
2022/07/31 11:11:31;;;;;;;5.93;3.80;;;20.30;99.90;;;;;;5034917;28;20104;-84
2022/07/31 11:13:58;;;;;;;7.68;4.18;;;20.20;99.90;;;;;;5035066;28;20041;-85
2022/07/31 11:16:25;;;;;;;7.28;4.03;;;20.10;99.90;;;;;;5034195;28;20496;-81
2022/07/31 11:19:01;;;;;;;8.20;5.68;;;20.10;99.90;;;;;;5033081;28;20045;-81
2022/07/31 11:21:34;;;;;;;;;;;20.10;99.90;;;;;;5034592;28;20045;-80
2022/07/31 11:24:10;;;;;;;7.28;3.97;;;19.90;99.90;;;;;;5001101;28;20003;-80
2022/07/31 11:26:36;;;;;;;8.23;5.03;;;19.90;99.90;;;;;;5031519;28;20039;-80
2022/07/31 11:29:02;;;;;;;10.55;5.40;;;19.90;99.90;;;;;;5034149;28;20039;-81
2022/07/31 11:31:29;;;;;;;8.80;4.57;;;19.80;99.90;;;;;;5001193;28;20383;-80
2022/07/31 11:33:54;;;;;;;8.68;4.78;;;19.80;99.90;;;;;;5033501;28;20096;-84
2022/07/31 11:36:23;;;;;;;12.13;5.82;;;19.80;99.90;;;;;;5001828;28;20476;-85
2022/07/31 11:38:55;;;;;;;8.13;4.93;;;19.70;99.90;;;;;;5043761;28;20501;-85
2022/07/31 11:41:25;;;;;;;8.88;5.30;;;19.70;99.90;;;;;;5021032;28;20099;-84
2022/07/31 11:43:53;;;;;;;6.57;3.75;;;19.70;99.90;;;;;;5022709;28;20092;-84
2022/07/31 11:46:25;;;;;;;6.68;3.83;;;19.60;99.90;;;;;;5033800;28;20046;-84
2022/07/31 11:48:51;;;;;;;5.85;3.78;;;19.60;99.90;;;;;;5033892;28;20072;-85
2022/07/31 11:51:18;;;;;;;6.90;4.00;;;19.60;99.90;;;;;;5034103;28;20491;-85
2022/07/31 11:53:44;;;;;;;5.40;3.60;;;19.70;99.90;;;;;;5033445;28;20060;-85
2022/07/31 11:56:10;;;;;;;8.35;3.78;;;19.80;99.90;;;;;;5001200;28;20127;-85
2022/07/31 11:58:37;;;;;;;5.85;3.50;;;19.80;99.90;;;;;;5033400;28;20037;-85
2022/07/31 12:01:04;;;;;;;6.78;3.40;;;19.90;99.90;;;;;;4997131;28;20062;-85
2022/07/31 12:03:35;;;;;;;5.95;3.30;;;19.90;99.90;;;;;;5042861;28;20099;-86
2022/07/31 12:06:02;;;;;;;5.78;3.75;;;20.00;99.90;;;;;;5033392;28;20060;-86
2022/07/31 12:08:28;;;;;;;5.78;3.28;;;20.00;99.90;;;;;;5000721;28;20052;-81
2022/07/31 12:10:59;;;;;;;4.63;3.17;;;19.90;99.90;;;;;;5023428;28;20087;-81
2022/07/31 12:13:26;;;;;;;6.68;2.90;;;20.00;99.90;;;;;;5010739;28;20499;-81
2022/07/31 12:15:57;;;;;;;5.88;3.20;;;19.90;99.90;;;;;;5001983;28;20045;-82
2022/07/31 12:18:24;;;;;;;3.38;2.20;;;19.90;99.90;;;;;;4995203;28;20041;-81
2022/07/31 12:21:03;;;;;;;4.97;2.75;;;19.90;99.90;;;;;;4997601;28;20536;-81
2022/07/31 12:23:39;;;;;;;4.55;2.60;;;19.90;99.90;;;;;;5022596;28;20048;-85
2022/07/31 12:26:05;;;;;;;6.40;3.38;;;19.90;99.90;;;;;;5000597;28;20102;-85
2022/07/31 12:28:30;;;;;;;6.05;2.75;;;19.90;99.90;;;;;;5033039;28;20491;-84
2022/07/31 12:30:58;;;;;;;5.28;3.35;;;19.90;99.90;;;;;;5023383;28;20044;-85
2022/07/31 12:33:26;;;;;;;4.40;2.60;;;19.90;99.90;;;;;;5032720;28;20045;-85
2022/07/31 12:35:52;;;;;;;5.18;2.88;;;19.90;99.90;;;;;;5010395;28;20045;-85
2022/07/31 12:38:27;;;;;;;3.88;2.30;;;19.90;99.90;;;;;;5011518;28;20487;-85
2022/07/31 12:41:05;;;;;;;5.72;2.40;;;19.90;99.90;;;;;;5002936;28;20041;-81
2022/07/31 12:43:32;;;;;;;5.07;2.63;;;20.00;99.90;;;;;;5029149;28;20052;-81
2022/07/31 12:46:04;;;;;;;4.50;2.60;;;20.00;99.90;;;;;;5014871;28;20037;-80
2022/07/31 12:48:33;;;;;;;3.13;1.77;;;20.00;99.90;;;;;;5016773;28;20051;-81